createdAt,value
2022-12-01T00:01:18.438Z,26.60
2022-12-01T00:06:22.693Z,27.65
2022-12-01T00:11:26.401Z,26.85
2022-12-01T00:16:31.507Z,25.85
2022-12-01T00:21:35.206Z,27.15
2022-12-01T00:26:39.734Z,25.52
2022-12-01T00:31:45.893Z,28.10
2022-12-01T00:36:49.751Z,26.30
2022-12-01T00:41:53.441Z,27.85
2022-12-01T00:46:58.496Z,27.40
2022-12-01T00:52:02.179Z,26.90
2022-12-01T00:57:06.244Z,27.30
2022-12-01T01:02:11.304Z,27.98
2022-12-01T01:07:15.077Z,28.42
2022-12-01T01:12:18.740Z,30.25
2022-12-01T01:17:23.859Z,27.65
2022-12-01T01:22:27.569Z,29.23
2022-12-01T01:27:31.302Z,29.35
2022-12-01T01:32:36.398Z,31.45
2022-12-01T01:37:40.116Z,29.00
2022-12-01T01:42:43.797Z,29.30
2022-12-01T01:47:51.211Z,28.62
2022-12-01T01:53:02.313Z,28.73
2022-12-01T01:58:10.229Z,30.02
2022-12-01T02:03:18.058Z,29.08
2022-12-01T02:08:21.926Z,28.48
2022-12-01T02:13:34.703Z,30.10
2022-12-01T02:18:52.117Z,28.62
2022-12-01T02:24:35.663Z,28.40
2022-12-01T02:30:02.855Z,28.15
2022-12-01T02:35:17.283Z,28.77
2022-12-01T02:40:26.518Z,29.00
2022-12-01T02:45:37.778Z,28.08
2022-12-01T02:50:44.073Z,28.35
2022-12-01T02:55:49.659Z,26.48
2022-12-01T03:01:08.160Z,28.52
2022-12-01T03:06:18.433Z,27.52
2022-12-01T03:11:31.571Z,28.05
2022-12-01T03:16:46.926Z,28.27
2022-12-01T03:21:59.496Z,27.77
2022-12-01T03:27:05.691Z,28.02
2022-12-01T03:32:14.290Z,26.15
2022-12-01T03:37:23.579Z,27.35
2022-12-01T03:42:31.559Z,27.90
2022-12-01T03:47:37.630Z,29.00
2022-12-01T03:52:50.859Z,29.52
2022-12-01T03:57:59.337Z,29.23
2022-12-01T04:03:04.893Z,27.90
2022-12-01T04:08:10.094Z,30.65
2022-12-01T04:13:22.521Z,29.48
2022-12-01T04:18:26.256Z,30.85
2022-12-01T04:23:48.826Z,28.45
2022-12-01T04:28:52.558Z,30.58
2022-12-01T04:33:56.536Z,32.22
2022-12-01T04:39:02.146Z,30.67
2022-12-01T04:44:06.214Z,31.17
2022-12-01T04:49:10.297Z,32.78
2022-12-01T04:54:15.583Z,32.78
2022-12-01T04:59:19.304Z,32.38
2022-12-01T05:04:23.001Z,31.45
2022-12-01T05:09:28.092Z,33.58
2022-12-01T05:14:31.760Z,30.70
2022-12-01T05:19:53.078Z,33.58
2022-12-01T05:24:58.172Z,32.10
2022-12-01T05:30:01.860Z,31.40
2022-12-01T05:35:06.450Z,32.75
2022-12-01T05:40:12.978Z,31.73
2022-12-01T05:45:16.857Z,33.33
2022-12-01T05:50:20.579Z,31.35
2022-12-01T05:55:26.080Z,33.28
2022-12-01T06:00:30.283Z,32.55
2022-12-01T06:05:34.074Z,33.70
2022-12-01T06:10:39.101Z,33.97
2022-12-01T06:15:42.814Z,32.70
2022-12-01T06:20:46.486Z,34.08
2022-12-01T06:25:51.574Z,34.78
2022-12-01T06:31:00.992Z,33.45
2022-12-01T06:36:08.586Z,34.85
2022-12-01T06:41:13.702Z,34.22
2022-12-01T06:46:17.427Z,31.48
2022-12-01T06:51:21.360Z,34.53
2022-12-01T06:56:26.417Z,34.80
2022-12-01T07:01:30.488Z,36.10
2022-12-01T07:06:34.220Z,33.22
2022-12-01T07:11:39.243Z,34.88
2022-12-01T07:16:43.137Z,33.00
2022-12-01T07:21:46.845Z,34.40
2022-12-01T07:26:51.942Z,34.63
2022-12-01T07:31:55.645Z,34.13
2022-12-01T07:36:59.423Z,34.35
2022-12-01T07:42:05.152Z,35.38
2022-12-01T07:47:08.981Z,35.70
2022-12-01T07:52:12.698Z,35.08
2022-12-01T07:57:19.635Z,36.33
2022-12-01T08:02:23.455Z,33.75
2022-12-01T08:07:29.884Z,34.60
2022-12-01T08:12:35.181Z,32.33
2022-12-01T08:17:38.858Z,34.30
2022-12-01T08:22:42.965Z,34.70
2022-12-01T08:27:48.259Z,33.70
2022-12-01T08:32:54.390Z,32.88
2022-12-01T08:37:58.163Z,32.45
2022-12-01T08:43:03.228Z,34.25
2022-12-01T08:48:07.475Z,33.45
2022-12-01T08:53:11.194Z,32.05
2022-12-01T08:58:16.256Z,33.15
2022-12-01T09:03:20.056Z,34.45
2022-12-01T09:08:34.041Z,33.03
2022-12-01T09:13:40.151Z,32.80
2022-12-01T09:18:44.678Z,33.10
2022-12-01T09:23:48.818Z,32.45
2022-12-01T09:28:56.330Z,32.38
2022-12-01T09:34:01.966Z,33.17
2022-12-01T09:39:07.474Z,33.30
2022-12-01T09:44:21.882Z,32.97
2022-12-01T09:49:30.479Z,33.50
2022-12-01T09:54:34.196Z,33.17
2022-12-01T09:59:43.240Z,32.95
2022-12-01T10:04:48.941Z,32.63
2022-12-01T10:09:56.829Z,31.50
2022-12-01T10:15:16.211Z,33.58
2022-12-01T10:20:26.861Z,32.53
2022-12-01T10:25:38.734Z,33.35
2022-12-01T10:30:50.839Z,34.17
2022-12-01T10:35:55.167Z,32.58
2022-12-01T10:41:01.666Z,35.20
2022-12-01T10:46:20.718Z,35.50
2022-12-01T10:51:25.132Z,33.78
2022-12-01T10:56:29.513Z,34.50
2022-12-01T11:01:36.327Z,34.35
2022-12-01T11:06:40.598Z,34.63
2022-12-01T11:11:44.470Z,34.55
2022-12-01T11:16:52.500Z,34.53
2022-12-01T11:21:58.433Z,33.70
2022-12-01T11:27:02.261Z,32.63
2022-12-01T11:32:20.232Z,32.63
2022-12-01T11:37:26.577Z,31.95
2022-12-01T11:42:34.361Z,30.98
2022-12-01T11:47:59.704Z,30.02
2022-12-01T11:53:04.185Z,31.12
2022-12-01T11:58:09.897Z,30.62
2022-12-01T12:03:22.218Z,30.17
2022-12-01T12:08:36.682Z,31.73
2022-12-01T12:14:12.589Z,30.80
2022-12-01T12:20:06.442Z,31.55
2022-12-01T12:25:09.342Z,31.70
2022-12-01T12:30:23.513Z,31.20
2022-12-01T12:35:36.755Z,31.87
2022-12-01T12:40:47.785Z,29.87
2022-12-01T12:46:08.353Z,30.98
2022-12-01T12:51:18.851Z,29.50
2022-12-01T12:56:27.038Z,28.58
2022-12-01T13:01:35.537Z,27.30
2022-12-01T13:06:44.659Z,26.65
2022-12-01T13:11:54.040Z,25.20
2022-12-01T13:17:08.342Z,23.90
2022-12-01T13:22:15.363Z,24.98
2022-12-01T13:27:22.203Z,26.48
2022-12-01T13:32:31.427Z,27.83
2022-12-01T13:37:39.211Z,31.55
2022-12-01T13:42:43.289Z,32.95
2022-12-01T13:47:52.699Z,31.65
2022-12-01T13:53:11.447Z,33.40
2022-12-01T13:58:27.381Z,33.50
2022-12-01T14:03:56.987Z,32.67
2022-12-01T14:09:07.273Z,34.70
2022-12-01T14:14:14.535Z,33.45
2022-12-01T14:19:31.538Z,31.03
2022-12-01T14:24:40.415Z,30.50
2022-12-01T14:29:44.520Z,30.77
2022-12-01T14:34:53.770Z,30.95
2022-12-01T14:40:07.068Z,30.42
2022-12-01T14:45:16.475Z,29.73
2022-12-01T14:50:25.473Z,29.15
2022-12-01T14:55:35.319Z,29.75
2022-12-01T15:00:41.736Z,28.15
2022-12-01T15:05:45.609Z,28.62
2022-12-01T15:10:55.856Z,27.60
2022-12-01T15:16:01.340Z,28.40
2022-12-01T15:21:09.514Z,29.40
2022-12-01T15:26:19.809Z,29.48
2022-12-01T15:31:24.543Z,28.77
2022-12-01T15:36:28.472Z,29.75
2022-12-01T15:41:36.692Z,30.42
2022-12-01T15:51:44.568Z,32.17
2022-12-01T15:56:53.865Z,33.90
2022-12-01T16:01:58.366Z,34.63
2022-12-01T16:07:05.618Z,34.22
2022-12-01T16:12:28.930Z,34.30
2022-12-01T16:17:43.241Z,34.88
2022-12-01T16:22:47.687Z,34.22
2022-12-01T16:27:54.815Z,33.38
2022-12-01T16:33:03.344Z,36.70
2022-12-01T16:38:15.811Z,33.88
2022-12-01T16:43:22.859Z,32.80
2022-12-01T16:48:26.641Z,33.63
2022-12-01T16:53:30.462Z,35.90
2022-12-01T16:58:35.653Z,33.92
2022-12-01T17:03:39.525Z,35.13
2022-12-01T17:08:43.252Z,35.42
2022-12-01T17:13:48.282Z,35.80
2022-12-01T17:18:52.146Z,35.30
2022-12-01T17:23:55.922Z,35.33
2022-12-01T17:29:01.018Z,35.92
2022-12-01T17:34:04.811Z,34.72
2022-12-01T17:39:08.539Z,36.50
2022-12-01T17:44:13.676Z,35.13
2022-12-01T17:49:17.481Z,33.75
2022-12-01T17:54:21.479Z,34.92
2022-12-01T17:59:26.879Z,35.05
2022-12-01T18:04:31.310Z,34.72
2022-12-01T18:09:35.292Z,36.88
2022-12-01T18:14:40.801Z,34.38
2022-12-01T18:19:44.510Z,35.13
2022-12-01T18:24:48.672Z,36.17
2022-12-01T18:29:54.036Z,35.03
2022-12-01T18:34:57.909Z,36.10
2022-12-01T18:40:01.576Z,35.45
2022-12-01T18:45:07.606Z,35.20
2022-12-01T18:50:11.749Z,35.47
2022-12-01T18:55:15.723Z,34.20
2022-12-01T19:00:21.966Z,33.03
2022-12-01T19:10:31.417Z,34.95
2022-12-01T19:15:38.676Z,34.58
2022-12-01T19:20:42.558Z,34.90
2022-12-01T19:25:46.339Z,35.92
2022-12-01T19:30:51.441Z,36.28
2022-12-01T19:35:55.625Z,36.90
2022-12-01T19:41:02.127Z,36.45
2022-12-01T19:46:09.331Z,37.25
2022-12-01T19:51:19.775Z,35.30
2022-12-01T19:56:24.869Z,38.80
2022-12-01T20:01:30.150Z,36.67
2022-12-01T20:06:35.984Z,35.97
2022-12-01T20:11:39.677Z,38.55
2022-12-01T20:16:44.939Z,35.95
2022-12-01T20:21:48.798Z,39.25
2022-12-01T20:26:56.668Z,36.83
2022-12-01T20:32:03.248Z,37.35
2022-12-01T20:37:07.194Z,36.65
2022-12-01T20:42:11.423Z,36.90
2022-12-01T20:47:18.571Z,37.35
2022-12-01T20:52:22.494Z,38.80
2022-12-01T20:57:26.411Z,38.85
2022-12-01T21:02:31.637Z,37.63
2022-12-01T21:07:35.431Z,37.80
2022-12-01T21:12:58.352Z,37.53
2022-12-01T21:18:06.490Z,41.47
2022-12-01T21:23:12.931Z,37.33
2022-12-01T21:28:19.885Z,37.83
2022-12-01T21:33:29.139Z,36.58
2022-12-01T21:38:32.975Z,38.40
2022-12-01T21:43:38.575Z,39.05
2022-12-01T21:48:46.061Z,38.05
2022-12-01T21:53:51.022Z,37.47
2022-12-01T21:58:58.750Z,38.15
2022-12-01T22:04:13.170Z,37.92
2022-12-01T22:09:23.645Z,36.55
2022-12-01T22:14:33.197Z,35.70
2022-12-01T22:19:42.275Z,36.05
2022-12-01T22:24:47.905Z,36.65
2022-12-01T22:29:53.556Z,38.35
2022-12-01T22:35:01.207Z,39.50
2022-12-01T22:40:30.594Z,36.55
2022-12-01T22:45:34.499Z,37.08
2022-12-01T22:50:40.707Z,38.83
2022-12-01T22:55:44.725Z,37.97
2022-12-01T23:00:48.495Z,41.22
2022-12-01T23:05:57.418Z,40.45
2022-12-01T23:11:01.206Z,35.13
2022-12-01T23:16:05.653Z,38.63
2022-12-01T23:21:11.132Z,38.28
2022-12-01T23:26:15.002Z,36.75
2022-12-01T23:31:18.750Z,38.70
2022-12-01T23:36:26.042Z,37.45
2022-12-01T23:41:33.938Z,41.72
2022-12-01T23:46:37.976Z,38.67
2022-12-01T23:51:46.699Z,40.80
2022-12-01T23:56:53.201Z,40.50
